createdAt,value
2017-03-22T00:00:55.868Z,1008.09
2017-03-22T00:01:49.542Z,1008.08
2017-03-22T00:02:50.303Z,1008.14
2017-03-22T00:03:51.235Z,1008.11
2017-03-22T00:04:46.212Z,1008.07
2017-03-22T00:05:46.305Z,1008.07
2017-03-22T00:06:40.349Z,1008.08
2017-03-22T00:07:41.279Z,1008.08
2017-03-22T00:08:42.399Z,1008.09
2017-03-22T00:09:37.164Z,1008.08
2017-03-22T00:10:32.239Z,1008.08
2017-03-22T00:11:33.233Z,1008.09
2017-03-22T00:12:33.208Z,1008.05
2017-03-22T00:13:33.263Z,1008.08
2017-03-22T00:14:28.261Z,1008.06
2017-03-22T00:15:22.635Z,1008.04
2017-03-22T00:16:22.314Z,1008.08
2017-03-22T00:17:17.365Z,1008.07
2017-03-22T00:18:17.402Z,1008.08
2017-03-22T00:19:11.380Z,1008.02
2017-03-22T00:20:11.961Z,1008.01
2017-03-22T00:21:06.639Z,1008.01
2017-03-22T00:22:01.836Z,1007.96
2017-03-22T00:23:01.513Z,1007.98
2017-03-22T00:23:56.544Z,1007.95
2017-03-22T00:24:57.054Z,1007.92
2017-03-22T00:25:56.764Z,1007.90
2017-03-22T00:26:51.546Z,1007.90
2017-03-22T00:27:51.525Z,1007.85
2017-03-22T00:28:46.551Z,1007.83
2017-03-22T00:29:52.577Z,1007.85
2017-03-22T00:30:47.617Z,1007.84
2017-03-22T00:31:41.637Z,1007.79
2017-03-22T00:32:41.685Z,1007.85
2017-03-22T00:33:41.702Z,1007.79
2017-03-22T00:34:36.749Z,1007.77
2017-03-22T00:35:30.733Z,1007.83
2017-03-22T00:36:30.782Z,1007.81
2017-03-22T00:37:25.841Z,1007.81
2017-03-22T00:38:26.407Z,1007.84
2017-03-22T00:39:25.826Z,1007.81
2017-03-22T00:40:25.831Z,1007.79
2017-03-22T00:41:19.915Z,1007.80
2017-03-22T00:42:19.920Z,1007.80
2017-03-22T00:43:14.922Z,1007.73
2017-03-22T00:44:10.015Z,1007.75
2017-03-22T00:45:11.036Z,1007.74
2017-03-22T00:46:11.009Z,1007.76
2017-03-22T00:47:11.055Z,1007.73
2017-03-22T00:48:06.058Z,1007.72
2017-03-22T00:49:00.074Z,1007.68
2017-03-22T00:50:00.128Z,1007.74
2017-03-22T00:50:55.146Z,1007.72
2017-03-22T00:52:01.078Z,1007.75
2017-03-22T00:52:56.209Z,1007.74
2017-03-22T00:53:56.225Z,1007.72
2017-03-22T00:54:56.254Z,1007.76
2017-03-22T00:55:56.743Z,1007.69
2017-03-22T00:56:51.280Z,1007.74
2017-03-22T00:57:51.294Z,1007.77
2017-03-22T00:58:51.340Z,1007.78
2017-03-22T00:59:51.335Z,1007.78
2017-03-22T01:00:45.352Z,1007.76
2017-03-22T01:01:45.373Z,1007.75
2017-03-22T01:02:40.612Z,1007.75
2017-03-22T01:03:35.482Z,1007.75
2017-03-22T01:04:36.537Z,1007.77
2017-03-22T01:05:37.496Z,1007.77
2017-03-22T01:06:32.536Z,1007.74
2017-03-22T01:07:26.572Z,1007.77
2017-03-22T01:08:26.585Z,1007.74
2017-03-22T01:09:21.646Z,1007.74
2017-03-22T01:10:21.648Z,1007.74
2017-03-22T01:11:15.681Z,1007.77
2017-03-22T01:12:15.764Z,1007.79
2017-03-22T01:13:10.872Z,1007.79
2017-03-22T01:14:05.688Z,1007.76
2017-03-22T01:15:05.761Z,1007.78
2017-03-22T01:16:00.816Z,1007.80
2017-03-22T01:16:55.831Z,1007.77
2017-03-22T01:17:55.845Z,1007.77
2017-03-22T01:18:50.892Z,1007.77
2017-03-22T01:19:45.951Z,1007.77
2017-03-22T01:20:46.970Z,1007.81
2017-03-22T01:21:47.289Z,1007.75
2017-03-22T01:22:47.264Z,1007.77
2017-03-22T01:23:42.023Z,1007.76
2017-03-22T01:24:36.045Z,1007.73
2017-03-22T01:25:36.002Z,1007.73
2017-03-22T01:26:31.044Z,1007.72
2017-03-22T01:27:31.088Z,1007.78
2017-03-22T01:28:25.140Z,1007.73
2017-03-22T01:29:25.187Z,1007.77
2017-03-22T01:30:20.161Z,1007.72
2017-03-22T01:31:20.149Z,1007.73
2017-03-22T01:32:20.207Z,1007.71
2017-03-22T01:33:20.276Z,1007.72
2017-03-22T01:34:14.293Z,1007.73
2017-03-22T01:35:14.295Z,1007.72
2017-03-22T01:36:09.336Z,1007.75
2017-03-22T01:37:04.324Z,1007.75
2017-03-22T01:38:04.379Z,1007.79
2017-03-22T01:38:59.392Z,1007.76
2017-03-22T01:39:54.424Z,1007.73
2017-03-22T01:40:55.456Z,1007.74
2017-03-22T01:41:55.473Z,1007.73
2017-03-22T01:42:55.510Z,1007.69
2017-03-22T01:43:50.536Z,1007.70
2017-03-22T01:44:44.529Z,1007.69
2017-03-22T01:45:45.605Z,1007.69
2017-03-22T01:46:45.613Z,1007.71
2017-03-22T01:47:45.929Z,1007.64
2017-03-22T01:48:40.656Z,1007.67
2017-03-22T01:49:34.653Z,1007.67
2017-03-22T01:50:34.725Z,1007.67
2017-03-22T01:51:29.721Z,1007.71
2017-03-22T01:52:24.736Z,1007.70
2017-03-22T01:53:25.764Z,1007.67
2017-03-22T01:54:25.836Z,1007.67
2017-03-22T01:55:25.810Z,1007.66
2017-03-22T01:56:20.856Z,1007.69
2017-03-22T01:57:14.841Z,1007.67
2017-03-22T01:58:15.930Z,1007.66
2017-03-22T01:59:15.946Z,1007.67
2017-03-22T02:00:15.925Z,1007.68
2017-03-22T02:01:15.944Z,1007.71
2017-03-22T02:02:21.908Z,1007.68
2017-03-22T02:03:21.997Z,1007.70
2017-03-22T02:04:22.056Z,1007.71
2017-03-22T02:05:22.030Z,1007.70
2017-03-22T02:06:22.297Z,1007.72
2017-03-22T02:07:22.109Z,1007.69
2017-03-22T02:08:17.086Z,1007.75
2017-03-22T02:09:11.089Z,1007.71
2017-03-22T02:10:11.149Z,1007.76
2017-03-22T02:11:06.119Z,1007.75
2017-03-22T02:12:06.236Z,1007.75
2017-03-22T02:13:00.252Z,1007.74
2017-03-22T02:14:01.225Z,1007.78
2017-03-22T02:15:01.282Z,1007.75
2017-03-22T02:15:56.263Z,1007.72
2017-03-22T02:17:02.339Z,1007.75
2017-03-22T02:17:57.312Z,1007.73
2017-03-22T02:18:51.347Z,1007.71
2017-03-22T02:19:51.411Z,1007.74
2017-03-22T02:20:51.392Z,1007.72
2017-03-22T02:21:46.526Z,1007.72
2017-03-22T02:22:40.519Z,1007.72
2017-03-22T02:23:40.503Z,1007.73
2017-03-22T02:24:35.534Z,1007.70
2017-03-22T02:25:30.539Z,1007.72
2017-03-22T02:26:31.572Z,1007.73
2017-03-22T02:27:31.588Z,1007.71
2017-03-22T02:28:31.669Z,1007.76
2017-03-22T02:29:26.658Z,1007.73
2017-03-22T02:30:20.650Z,1007.70
2017-03-22T02:31:20.737Z,1007.72
2017-03-22T02:32:15.730Z,1007.73
2017-03-22T02:33:15.731Z,1007.75
2017-03-22T02:34:09.749Z,1007.73
2017-03-22T02:35:09.819Z,1007.71
2017-03-22T02:36:04.802Z,1007.74
2017-03-22T02:36:59.828Z,1007.75
2017-03-22T02:37:59.874Z,1007.75
2017-03-22T02:38:54.902Z,1007.77
2017-03-22T02:39:49.938Z,1007.75
2017-03-22T02:40:50.930Z,1007.77
2017-03-22T02:41:51.085Z,1007.73
2017-03-22T02:42:50.960Z,1007.73
2017-03-22T02:43:46.041Z,1007.74
2017-03-22T02:44:40.050Z,1007.78
2017-03-22T02:45:40.062Z,1007.73
2017-03-22T02:46:35.032Z,1007.78
2017-03-22T02:47:35.098Z,1007.78
2017-03-22T02:48:29.150Z,1007.76
2017-03-22T02:49:29.175Z,1007.78
2017-03-22T02:50:24.164Z,1007.75
2017-03-22T02:51:19.187Z,1007.76
2017-03-22T02:52:19.307Z,1007.79
2017-03-22T02:53:14.215Z,1007.79
2017-03-22T02:54:09.278Z,1007.83
2017-03-22T02:55:10.285Z,1007.83
2017-03-22T02:56:10.449Z,1007.84
2017-03-22T02:57:10.499Z,1007.83
2017-03-22T02:58:05.396Z,1007.92
2017-03-22T02:58:59.357Z,1007.89
2017-03-22T02:59:59.440Z,1007.91
2017-03-22T03:00:54.419Z,1007.89
2017-03-22T03:01:54.499Z,1007.90
2017-03-22T03:02:48.516Z,1007.88
2017-03-22T03:03:48.567Z,1007.89
2017-03-22T03:04:43.555Z,1007.90
2017-03-22T03:05:43.542Z,1007.86
2017-03-22T03:06:43.556Z,1007.87
2017-03-22T03:07:43.634Z,1007.86
2017-03-22T03:08:37.618Z,1007.90
2017-03-22T03:09:37.691Z,1007.88
2017-03-22T03:10:32.665Z,1007.92
2017-03-22T03:11:27.747Z,1007.93
2017-03-22T03:12:27.751Z,1007.95
2017-03-22T03:13:27.781Z,1007.96
2017-03-22T03:14:27.771Z,1008.01
2017-03-22T03:15:22.800Z,1008.05
2017-03-22T03:16:22.839Z,1008.02
2017-03-22T03:17:22.859Z,1008.09
2017-03-22T03:18:22.906Z,1008.12
2017-03-22T03:19:22.860Z,1008.09
2017-03-22T03:20:22.927Z,1008.12
2017-03-22T03:21:22.953Z,1008.14
2017-03-22T03:22:28.935Z,1008.12
2017-03-22T03:23:28.954Z,1008.20
2017-03-22T03:24:23.040Z,1008.16
2017-03-22T03:25:23.026Z,1008.19
2017-03-22T03:26:18.564Z,1008.22
2017-03-22T03:27:13.056Z,1008.19
2017-03-22T03:28:13.064Z,1008.20
2017-03-22T03:29:08.120Z,1008.21
2017-03-22T03:30:03.173Z,1008.23
2017-03-22T03:31:03.279Z,1008.25
2017-03-22T03:31:58.211Z,1008.22
2017-03-22T03:32:53.183Z,1008.23
2017-03-22T03:33:54.233Z,1008.23
2017-03-22T03:34:55.241Z,1008.26
2017-03-22T03:35:55.255Z,1008.27
2017-03-22T03:36:56.307Z,1008.28
2017-03-22T03:37:50.321Z,1008.28
2017-03-22T03:38:50.318Z,1008.27
2017-03-22T03:39:45.312Z,1008.30
2017-03-22T03:40:40.406Z,1008.29
2017-03-22T03:41:40.410Z,1008.30
2017-03-22T03:42:35.408Z,1008.34
2017-03-22T03:43:30.641Z,1008.31
2017-03-22T03:44:30.427Z,1008.30
2017-03-22T03:45:25.490Z,1008.29
2017-03-22T03:46:20.519Z,1008.26
2017-03-22T03:47:21.950Z,1008.27
2017-03-22T03:48:21.527Z,1008.30
2017-03-22T03:49:21.604Z,1008.27
2017-03-22T03:50:22.044Z,1008.30
2017-03-22T03:51:22.655Z,1008.30
2017-03-22T03:52:23.647Z,1008.31
2017-03-22T03:53:17.673Z,1008.25
2017-03-22T03:54:18.666Z,1008.28
2017-03-22T03:55:19.733Z,1008.32
2017-03-22T03:56:19.763Z,1008.31
2017-03-22T03:57:19.713Z,1008.25
2017-03-22T03:58:14.825Z,1008.24
2017-03-22T03:59:08.824Z,1008.28
2017-03-22T04:00:08.788Z,1008.26
2017-03-22T04:01:03.856Z,1008.24
2017-03-22T04:02:03.891Z,1008.33
2017-03-22T04:03:03.922Z,1008.29
2017-03-22T04:04:03.956Z,1008.31
2017-03-22T04:04:57.899Z,1008.35
2017-03-22T04:05:57.944Z,1008.34
2017-03-22T04:06:52.981Z,1008.32
2017-03-22T04:07:53.019Z,1008.21
2017-03-22T04:08:53.050Z,1008.29
2017-03-22T04:09:53.135Z,1008.30
2017-03-22T04:10:47.132Z,1008.27
2017-03-22T04:11:47.079Z,1008.27
2017-03-22T04:12:42.128Z,1008.22
2017-03-22T04:13:37.165Z,1008.23
2017-03-22T04:14:38.155Z,1008.23
2017-03-22T04:15:38.675Z,1008.24
2017-03-22T04:16:38.258Z,1008.25
2017-03-22T04:17:33.262Z,1008.23
2017-03-22T04:18:27.286Z,1008.27
2017-03-22T04:19:27.283Z,1008.27
2017-03-22T04:20:22.348Z,1008.27
2017-03-22T04:21:28.333Z,1008.31
2017-03-22T04:22:23.336Z,1008.32
2017-03-22T04:23:23.395Z,1008.29
2017-03-22T04:24:23.604Z,1008.28
2017-03-22T04:25:23.481Z,1008.28
2017-03-22T04:26:18.467Z,1008.24
2017-03-22T04:27:13.506Z,1008.27
2017-03-22T04:28:13.522Z,1008.26
2017-03-22T04:29:08.601Z,1008.26
2017-03-22T04:30:03.549Z,1008.24
2017-03-22T04:31:03.549Z,1008.23
2017-03-22T04:31:58.580Z,1008.31
2017-03-22T04:32:53.620Z,1008.22
2017-03-22T04:33:54.615Z,1008.20
2017-03-22T04:34:54.617Z,1008.24
2017-03-22T04:35:54.628Z,1008.24
2017-03-22T04:36:49.701Z,1008.23
2017-03-22T04:37:43.714Z,1008.27
2017-03-22T04:38:43.812Z,1008.24
2017-03-22T04:39:38.734Z,1008.20
2017-03-22T04:40:38.844Z,1008.21
2017-03-22T04:41:32.956Z,1008.24
2017-03-22T04:42:32.823Z,1008.21
2017-03-22T04:43:28.317Z,1008.24
2017-03-22T04:44:22.940Z,1008.21
2017-03-22T04:45:23.919Z,1008.13
2017-03-22T04:46:23.948Z,1008.17
2017-03-22T04:47:18.968Z,1008.11
2017-03-22T04:48:18.982Z,1008.13
2017-03-22T04:49:13.330Z,1008.11
2017-03-22T04:50:13.058Z,1008.14
2017-03-22T04:51:08.423Z,1008.15
2017-03-22T04:52:03.133Z,1008.15
2017-03-22T04:53:03.078Z,1008.16
2017-03-22T04:53:58.107Z,1008.15
2017-03-22T04:54:53.177Z,1008.17
2017-03-22T04:55:54.212Z,1008.16
2017-03-22T04:56:55.235Z,1008.18
2017-03-22T04:57:55.254Z,1008.19
2017-03-22T04:58:55.286Z,1008.22
2017-03-22T04:59:50.282Z,1008.27
2017-03-22T05:00:44.402Z,1008.26
2017-03-22T05:01:44.300Z,1008.28
2017-03-22T05:02:39.396Z,1008.26
2017-03-22T05:03:39.316Z,1008.25
2017-03-22T05:04:33.390Z,1008.25
2017-03-22T05:05:33.421Z,1008.29
2017-03-22T05:06:28.440Z,1008.27
2017-03-22T05:07:23.423Z,1008.27
2017-03-22T05:08:23.431Z,1008.29
2017-03-22T05:09:18.493Z,1008.25
2017-03-22T05:10:13.544Z,1008.22
2017-03-22T05:11:07.578Z,1008.25
2017-03-22T05:12:08.592Z,1008.28
2017-03-22T05:13:03.647Z,1008.27
2017-03-22T05:13:57.723Z,1008.27
2017-03-22T05:14:52.667Z,1008.28
2017-03-22T05:15:41.681Z,1008.31
2017-03-22T05:16:36.768Z,1008.29
2017-03-22T05:17:36.747Z,1008.28
2017-03-22T05:18:36.752Z,1008.31
2017-03-22T05:19:30.838Z,1008.33
2017-03-22T05:20:31.844Z,1008.33
2017-03-22T05:21:31.853Z,1008.28
2017-03-22T05:22:27.344Z,1008.28
2017-03-22T05:23:26.957Z,1008.30
2017-03-22T05:24:26.921Z,1008.24
2017-03-22T05:25:26.986Z,1008.30
2017-03-22T05:26:21.352Z,1008.26
2017-03-22T05:27:20.945Z,1008.31
2017-03-22T05:28:15.987Z,1008.28
2017-03-22T05:29:11.003Z,1008.30
2017-03-22T05:30:05.119Z,1008.29
2017-03-22T05:31:06.101Z,1008.31
2017-03-22T05:32:07.157Z,1008.35
2017-03-22T05:33:02.119Z,1008.37
2017-03-22T05:34:02.141Z,1008.39
2017-03-22T05:35:02.221Z,1008.36
2017-03-22T05:36:02.143Z,1008.39
2017-03-22T05:37:02.288Z,1008.35
2017-03-22T05:38:02.232Z,1008.38
2017-03-22T05:39:02.244Z,1008.37
2017-03-22T05:40:02.259Z,1008.41
2017-03-22T05:41:02.312Z,1008.36
2017-03-22T05:42:02.313Z,1008.39
2017-03-22T05:43:08.364Z,1008.38
2017-03-22T05:44:03.408Z,1008.36
2017-03-22T05:44:57.358Z,1008.39
2017-03-22T05:45:57.622Z,1008.43
2017-03-22T05:46:52.431Z,1008.39
2017-03-22T05:47:47.497Z,1008.40
2017-03-22T05:48:47.545Z,1008.39
2017-03-22T05:49:42.512Z,1008.40
2017-03-22T05:50:42.530Z,1008.41
2017-03-22T05:51:43.574Z,1008.40
2017-03-22T05:52:44.555Z,1008.40
2017-03-22T05:53:38.679Z,1008.39
2017-03-22T05:54:38.637Z,1008.34
2017-03-22T05:55:33.596Z,1008.34
2017-03-22T05:56:29.157Z,1008.36
2017-03-22T05:57:22.743Z,1008.34
2017-03-22T05:58:22.738Z,1008.35
2017-03-22T05:59:17.759Z,1008.40
2017-03-22T06:00:12.821Z,1008.38
2017-03-22T06:01:12.845Z,1008.38
2017-03-22T06:02:07.858Z,1008.41
2017-03-22T06:03:02.834Z,1008.37
2017-03-22T06:03:57.057Z,1008.36
2017-03-22T06:04:57.917Z,1008.37
2017-03-22T06:05:52.934Z,1008.39
2017-03-22T06:06:52.948Z,1008.38
2017-03-22T06:07:52.982Z,1008.39
2017-03-22T06:08:53.033Z,1008.45
2017-03-22T06:09:53.061Z,1008.39
2017-03-22T06:10:53.007Z,1008.42
2017-03-22T06:11:53.147Z,1008.44
2017-03-22T06:12:53.100Z,1008.44
2017-03-22T06:13:59.536Z,1008.44
2017-03-22T06:14:54.154Z,1008.46
2017-03-22T06:15:48.127Z,1008.45
2017-03-22T06:16:48.199Z,1008.42
2017-03-22T06:17:43.234Z,1008.41
2017-03-22T06:18:43.241Z,1008.43
2017-03-22T06:19:44.249Z,1008.37
2017-03-22T06:20:44.287Z,1008.37
2017-03-22T06:21:44.333Z,1008.38
2017-03-22T06:22:44.656Z,1008.41
2017-03-22T06:23:44.405Z,1008.40
2017-03-22T06:24:44.355Z,1008.43
2017-03-22T06:25:44.428Z,1008.36
2017-03-22T06:26:44.485Z,1008.38
2017-03-22T06:27:44.468Z,1008.42
2017-03-22T06:28:38.462Z,1008.41
2017-03-22T06:29:38.467Z,1008.40
2017-03-22T06:30:33.511Z,1008.44
2017-03-22T06:31:27.583Z,1008.42
2017-03-22T06:32:27.631Z,1008.42
2017-03-22T06:33:21.628Z,1008.37
2017-03-22T06:34:16.716Z,1008.45
2017-03-22T06:35:17.691Z,1008.46
2017-03-22T06:36:17.655Z,1008.44
2017-03-22T06:37:13.258Z,1008.39
2017-03-22T06:38:12.809Z,1008.43
2017-03-22T06:39:07.772Z,1008.40
2017-03-22T06:40:02.845Z,1008.42
2017-03-22T06:40:57.015Z,1008.44
2017-03-22T06:41:51.855Z,1008.41
2017-03-22T06:42:52.940Z,1008.41
2017-03-22T06:43:52.945Z,1008.43
2017-03-22T06:44:48.029Z,1008.43
2017-03-22T06:45:47.925Z,1008.37
2017-03-22T06:46:43.670Z,1008.39
2017-03-22T06:47:37.999Z,1008.42
2017-03-22T06:48:38.554Z,1008.43
2017-03-22T06:49:33.151Z,1008.41
2017-03-22T06:50:28.127Z,1008.41
2017-03-22T06:51:17.169Z,1008.45
2017-03-22T06:52:12.284Z,1008.40
2017-03-22T06:53:12.238Z,1008.43
2017-03-22T06:54:07.325Z,1008.38
2017-03-22T06:55:02.286Z,1008.39
2017-03-22T06:55:56.340Z,1008.41
2017-03-22T06:56:56.331Z,1008.39
2017-03-22T06:57:45.398Z,1008.41
2017-03-22T06:58:39.417Z,1008.39
2017-03-22T06:59:39.790Z,1008.40
2017-03-22T07:00:34.497Z,1008.41
2017-03-22T07:01:29.533Z,1008.43
2017-03-22T07:02:29.543Z,1008.47
2017-03-22T07:03:24.628Z,1008.47
2017-03-22T07:04:19.662Z,1008.47
2017-03-22T07:05:14.019Z,1008.48
2017-03-22T07:06:13.925Z,1008.42
2017-03-22T07:07:08.707Z,1008.42
2017-03-22T07:08:08.785Z,1008.43
2017-03-22T07:09:08.810Z,1008.47
2017-03-22T07:10:08.842Z,1008.43
2017-03-22T07:11:02.872Z,1008.44
2017-03-22T07:12:02.846Z,1008.48
2017-03-22T07:12:56.935Z,1008.48
2017-03-22T07:13:56.959Z,1008.53
2017-03-22T07:14:52.036Z,1008.56
2017-03-22T07:15:45.978Z,1008.58
2017-03-22T07:16:45.972Z,1008.54
2017-03-22T07:17:40.069Z,1008.52
2017-03-22T07:18:40.140Z,1008.51
2017-03-22T07:19:40.106Z,1008.51
2017-03-22T07:20:40.206Z,1008.48
2017-03-22T07:21:40.217Z,1008.52
2017-03-22T07:22:34.241Z,1008.53
2017-03-22T07:23:35.240Z,1008.54
2017-03-22T07:24:35.229Z,1008.55
2017-03-22T07:25:35.311Z,1008.54
2017-03-22T07:26:35.661Z,1008.58
2017-03-22T07:27:35.342Z,1008.59
2017-03-22T07:28:35.437Z,1008.58
2017-03-22T07:29:30.436Z,1008.57
2017-03-22T07:30:30.547Z,1008.56
2017-03-22T07:31:25.487Z,1008.60
2017-03-22T07:32:20.507Z,1008.59
2017-03-22T07:33:20.847Z,1008.54
2017-03-22T07:34:15.623Z,1008.56
2017-03-22T07:35:10.657Z,1008.57
2017-03-22T07:36:04.896Z,1008.51
2017-03-22T07:37:04.758Z,1008.57
2017-03-22T07:37:59.813Z,1008.60
2017-03-22T07:38:59.838Z,1008.58
2017-03-22T07:39:59.848Z,1008.60
2017-03-22T07:40:59.840Z,1008.56
2017-03-22T07:41:53.954Z,1008.60
2017-03-22T07:42:53.964Z,1008.56
2017-03-22T07:43:48.174Z,1008.57
2017-03-22T07:44:48.061Z,1008.57
2017-03-22T07:45:43.056Z,1008.58
2017-03-22T07:46:43.110Z,1008.58
2017-03-22T07:47:38.137Z,1008.62
2017-03-22T07:48:38.179Z,1008.59
2017-03-22T07:49:33.336Z,1008.65
2017-03-22T07:50:27.241Z,1008.61
2017-03-22T07:51:27.273Z,1008.64
2017-03-22T07:52:21.962Z,1008.62
2017-03-22T07:53:21.864Z,1008.63
2017-03-22T07:54:16.434Z,1008.65
2017-03-22T07:55:11.429Z,1008.65
2017-03-22T07:56:11.544Z,1008.63
2017-03-22T07:57:05.538Z,1008.61
2017-03-22T07:58:06.567Z,1008.60
2017-03-22T07:59:06.588Z,1008.60
2017-03-22T08:00:01.656Z,1008.63
2017-03-22T08:00:50.843Z,1008.68
2017-03-22T08:01:50.716Z,1008.68
2017-03-22T08:02:50.792Z,1008.67
2017-03-22T08:03:50.751Z,1008.68
2017-03-22T08:04:44.855Z,1008.73
2017-03-22T08:05:44.850Z,1008.72
2017-03-22T08:06:39.984Z,1008.75
2017-03-22T08:07:28.929Z,1008.76
2017-03-22T08:08:23.431Z,1008.77
2017-03-22T08:09:24.515Z,1008.78
2017-03-22T08:10:25.729Z,1008.76
2017-03-22T08:11:25.624Z,1008.79
2017-03-22T08:12:25.777Z,1008.80
2017-03-22T08:13:25.669Z,1008.77
2017-03-22T08:14:25.917Z,1008.81
2017-03-22T08:15:19.266Z,1008.80
2017-03-22T08:16:19.335Z,1008.86
2017-03-22T08:17:14.347Z,1008.80
2017-03-22T08:18:09.455Z,1008.84
2017-03-22T08:19:03.451Z,1008.84
2017-03-22T08:20:04.516Z,1008.82
2017-03-22T08:20:59.972Z,1008.84
2017-03-22T08:21:59.963Z,1008.85
2017-03-22T08:22:59.638Z,1008.83
2017-03-22T08:23:59.648Z,1008.88
2017-03-22T08:24:54.785Z,1008.81
2017-03-22T08:25:54.739Z,1008.82
2017-03-22T08:26:49.726Z,1008.83
2017-03-22T08:27:43.836Z,1008.86
2017-03-22T08:28:38.880Z,1008.86
2017-03-22T08:29:39.905Z,1008.85
2017-03-22T08:30:34.940Z,1008.85
2017-03-22T08:31:28.992Z,1008.87
2017-03-22T08:32:30.674Z,1008.88
2017-03-22T08:33:25.058Z,1008.85
2017-03-22T08:34:25.106Z,1008.87
2017-03-22T08:35:25.144Z,1008.88
2017-03-22T08:36:19.247Z,1008.89
2017-03-22T08:37:13.225Z,1008.83
2017-03-22T08:38:13.273Z,1008.80
2017-03-22T08:39:13.343Z,1008.83
2017-03-22T08:40:08.386Z,1008.82
2017-03-22T08:41:03.441Z,1008.78
2017-03-22T08:41:57.458Z,1008.79
2017-03-22T08:42:58.518Z,1008.81
2017-03-22T08:43:59.774Z,1008.84
2017-03-22T08:44:53.615Z,1008.81
2017-03-22T08:45:53.648Z,1008.81
2017-03-22T08:46:48.644Z,1008.82
2017-03-22T08:47:37.764Z,1008.84
2017-03-22T08:48:33.429Z,1008.82
2017-03-22T08:49:27.819Z,1008.80
2017-03-22T08:50:27.839Z,1008.87
2017-03-22T08:51:22.925Z,1008.83
2017-03-22T08:52:16.994Z,1008.82
2017-03-22T08:53:17.046Z,1008.89
2017-03-22T08:54:10.996Z,1008.88
2017-03-22T08:55:05.048Z,1008.90
2017-03-22T08:55:59.122Z,1008.90
2017-03-22T08:56:53.201Z,1008.87
2017-03-22T08:57:48.238Z,1008.94
2017-03-22T08:58:43.296Z,1008.95
2017-03-22T08:59:37.278Z,1008.94
2017-03-22T09:00:32.360Z,1008.93
2017-03-22T09:01:32.410Z,1009.01
2017-03-22T09:02:27.452Z,1008.99
2017-03-22T09:03:21.550Z,1009.02
2017-03-22T09:04:22.531Z,1008.97
2017-03-22T09:05:17.565Z,1009.08
2017-03-22T09:06:17.634Z,1009.08
2017-03-22T09:07:12.653Z,1009.08
2017-03-22T09:08:12.750Z,1009.11
2017-03-22T09:09:07.939Z,1009.08
2017-03-22T09:10:02.851Z,1009.08
2017-03-22T09:11:02.853Z,1009.10
2017-03-22T09:11:57.915Z,1009.06
2017-03-22T09:12:52.927Z,1009.12
2017-03-22T09:13:42.027Z,1009.14
2017-03-22T09:14:36.547Z,1009.16
2017-03-22T09:15:31.113Z,1009.17
2017-03-22T09:16:25.165Z,1009.08
2017-03-22T09:17:20.184Z,1009.15
2017-03-22T09:18:20.240Z,1009.12
2017-03-22T09:19:14.310Z,1009.14
2017-03-22T09:20:15.352Z,1009.21
2017-03-22T09:21:09.804Z,1009.14
2017-03-22T09:21:58.433Z,1009.11
2017-03-22T09:22:46.512Z,1009.04
2017-03-22T09:23:41.779Z,1009.15
2017-03-22T09:24:41.542Z,1009.09
2017-03-22T09:25:36.550Z,1009.15
2017-03-22T09:26:30.628Z,1009.13
2017-03-22T09:27:25.730Z,1009.14
2017-03-22T09:28:20.748Z,1009.09
2017-03-22T09:29:14.870Z,1009.14
2017-03-22T09:30:09.287Z,1009.08
2017-03-22T09:31:02.944Z,1009.04
2017-03-22T09:32:02.942Z,1009.08
2017-03-22T09:32:57.990Z,1009.04
2017-03-22T09:33:53.017Z,1009.09
2017-03-22T09:34:47.071Z,1009.08
2017-03-22T09:35:48.152Z,1009.10
2017-03-22T09:36:42.773Z,1009.04
2017-03-22T09:37:36.237Z,1009.07
2017-03-22T09:38:36.250Z,1009.05
2017-03-22T09:39:30.372Z,1009.10
2017-03-22T09:40:25.371Z,1009.08
2017-03-22T09:41:25.448Z,1009.03
2017-03-22T09:42:19.447Z,1009.01
2017-03-22T09:43:19.533Z,1009.03
2017-03-22T09:44:13.983Z,1009.01
2017-03-22T09:45:08.583Z,1009.09
2017-03-22T09:46:08.652Z,1008.95
2017-03-22T09:47:03.960Z,1009.08
2017-03-22T09:48:03.751Z,1009.07
2017-03-22T09:48:58.737Z,1009.08
2017-03-22T09:49:47.782Z,1009.10
2017-03-22T09:50:47.824Z,1009.09
2017-03-22T09:51:41.920Z,1009.02
2017-03-22T09:52:37.009Z,1009.00
2017-03-22T09:53:36.991Z,1009.01
2017-03-22T09:54:32.141Z,1009.11
2017-03-22T09:55:27.096Z,1009.09
2017-03-22T09:56:21.444Z,1009.05
2017-03-22T09:57:21.855Z,1009.11
2017-03-22T09:58:16.218Z,1009.14
2017-03-22T09:59:16.742Z,1009.07
2017-03-22T10:00:10.311Z,1009.06
2017-03-22T10:01:10.375Z,1009.12
2017-03-22T10:02:05.421Z,1009.09
2017-03-22T10:03:00.475Z,1009.14
2017-03-22T10:03:49.513Z,1009.05
2017-03-22T10:04:43.538Z,1009.09
2017-03-22T10:05:43.625Z,1009.02
2017-03-22T10:06:37.652Z,1008.97
2017-03-22T10:07:37.733Z,1009.02
2017-03-22T10:08:32.738Z,1009.08
2017-03-22T10:09:26.833Z,1008.98
2017-03-22T10:10:26.837Z,1009.03
2017-03-22T10:11:21.137Z,1009.04
2017-03-22T10:12:21.864Z,1008.97
2017-03-22T10:13:17.224Z,1009.03
2017-03-22T10:14:17.368Z,1008.95
2017-03-22T10:15:12.045Z,1009.01
2017-03-22T10:16:12.141Z,1009.02
2017-03-22T10:17:07.116Z,1009.02
2017-03-22T10:18:02.159Z,1008.98
2017-03-22T10:18:56.178Z,1009.02
2017-03-22T10:19:56.208Z,1008.98
2017-03-22T10:20:56.309Z,1009.04
2017-03-22T10:21:56.297Z,1009.00
2017-03-22T10:22:51.839Z,1008.95
2017-03-22T10:23:46.482Z,1009.00
2017-03-22T10:24:40.498Z,1008.96
2017-03-22T10:25:35.548Z,1008.99
2017-03-22T10:26:29.543Z,1009.07
2017-03-22T10:27:29.749Z,1009.02
2017-03-22T10:28:24.740Z,1008.94
2017-03-22T10:29:20.198Z,1008.99
2017-03-22T10:30:14.772Z,1008.95
2017-03-22T10:31:08.848Z,1009.00
2017-03-22T10:32:02.855Z,1008.84
2017-03-22T10:33:02.919Z,1008.91
2017-03-22T10:33:56.870Z,1008.98
2017-03-22T10:34:56.917Z,1008.99
2017-03-22T10:35:46.023Z,1008.95
2017-03-22T10:36:41.250Z,1008.97
2017-03-22T10:37:36.116Z,1009.00
2017-03-22T10:38:30.617Z,1008.97
2017-03-22T10:39:25.355Z,1008.96
2017-03-22T10:40:20.256Z,1008.87
2017-03-22T10:41:14.312Z,1009.03
2017-03-22T10:42:08.368Z,1009.01
2017-03-22T10:43:02.456Z,1009.00
2017-03-22T10:43:56.389Z,1009.00
2017-03-22T10:44:51.504Z,1009.05
2017-03-22T10:45:52.633Z,1008.98
2017-03-22T10:46:52.697Z,1008.91
2017-03-22T10:47:47.617Z,1008.93
2017-03-22T10:48:47.655Z,1008.95
2017-03-22T10:49:42.642Z,1008.93
2017-03-22T10:50:37.710Z,1008.97
2017-03-22T10:51:26.864Z,1008.96
2017-03-22T10:52:20.859Z,1009.02
2017-03-22T10:53:14.901Z,1008.98
2017-03-22T10:54:08.919Z,1009.03
2017-03-22T10:55:02.906Z,1009.05
2017-03-22T10:55:57.421Z,1009.05
2017-03-22T10:56:58.283Z,1009.08
2017-03-22T10:57:58.345Z,1009.08
2017-03-22T10:58:52.177Z,1008.98
2017-03-22T10:59:53.189Z,1008.98
2017-03-22T11:00:47.294Z,1008.96
2017-03-22T11:01:47.258Z,1008.93
2017-03-22T11:02:42.371Z,1008.89
2017-03-22T11:03:37.422Z,1008.85
2017-03-22T11:04:31.499Z,1008.90
2017-03-22T11:05:31.609Z,1008.96
2017-03-22T11:06:20.522Z,1008.95
2017-03-22T11:07:09.562Z,1008.91
2017-03-22T11:07:58.117Z,1008.94
2017-03-22T11:08:59.138Z,1008.95
2017-03-22T11:09:52.738Z,1008.84
2017-03-22T11:10:41.755Z,1008.88
2017-03-22T11:11:36.835Z,1008.83
2017-03-22T11:12:30.914Z,1008.82
2017-03-22T11:13:24.880Z,1008.86
2017-03-22T11:14:24.972Z,1008.80
2017-03-22T11:15:19.040Z,1008.84
2017-03-22T11:16:14.025Z,1008.80
2017-03-22T11:17:14.300Z,1008.79
2017-03-22T11:18:09.057Z,1008.84
2017-03-22T11:19:04.112Z,1008.88
2017-03-22T11:20:04.194Z,1008.89
2017-03-22T11:20:59.682Z,1008.89
2017-03-22T11:21:54.315Z,1008.86
2017-03-22T11:22:48.319Z,1008.77
2017-03-22T11:23:49.367Z,1008.79
2017-03-22T11:24:38.410Z,1008.88
2017-03-22T11:25:33.812Z,1008.87
2017-03-22T11:26:28.545Z,1008.81
2017-03-22T11:27:22.615Z,1008.93
2017-03-22T11:28:16.641Z,1008.85
2017-03-22T11:29:10.680Z,1008.93
2017-03-22T11:30:05.090Z,1008.91
2017-03-22T11:30:59.042Z,1008.90
2017-03-22T11:31:59.820Z,1008.84